Terminal Aerodrome Forecast
Issued by NWS

Home | Current Version | Previous Version | Text Only | Print | Product List | Glossary On
Versions: 1 2 3 4 5 6 7 8 9 10 11 12 13 14 15 16 17 18 19 20 21 22 23 24 25 26 27 28 29 30 31 32 33 34 35 36 37 38 39 40 41 42 43 44 45 46 47 48 49 50
000
FTUS43 KMKX 252322
TAFENW
TAF
KENW 252322Z 2600/2624 22013G20KT P6SM SCT050
     FM260200 21011KT P6SM SCT250
     FM260800 21008KT 6SM BR SCT200
     FM261100 20009KT 5SM BR BKN015
     FM261600 18010KT P6SM SCT040 OVC070
     FM261900 17010KT 5SM SHRA BR BKN060
     FM262100 17011KT 6SM SHRA BR BKN025=

USA.gov is the U.S. government's official web portal to all federal, state and local government web resources and services.